Wildwood Camp, Iowa
Current Conditions -  °F | °C
As of 11:52 AM on Saturday 20 Dec 2014 (Local Time) from KDVN Reporting Station
Haze Haze  
Wind Chill: 24°   Ceiling: 2100
Heat Index: 32°   Visibility: 6mi
Dew Point: 25°   Wind: 9mph
Humidity: 75%   Direction: 150°SSE
Pressure: 30.23"   Gusts: NA
Location:  41.7317°N, 90.5411°W
Report Text: KDVN 201752Z AUTO 15008KT 6SM HZ OVC021 00/M04 A3023 RMK AO2 SLP246 T00001039 10000 21022 58006
Loading
Personal Weather Stations






























Interactive Weather Map New forecast layout! Learn more

10-Day Weather Forecast

Advertisements
Track Severe Weather on mobile